ポンペイ島 の空港の天気 - METARとTAF

ポンペイ国際空港 ( PTPN / PNI ) - ミクロネシア連邦 ポンペイ島
飛行場実況気象(Metar)
観測時間01/20 01:51 +11 (01/19 14:51 UTC)
風向・風速東北東 7m/s
視程10km以上
天気現象
全天の8割程度の雲 雲底高度 550m
全天を覆う雲 雲底高度 9140m
気温28℃
湿度84%
気圧1008hPa
METARPTPN 191451Z 07013KT 15SM BKN018TCU OVC300 28/25 A2977 RMK TCU NE-SE AND NW
過去の天気等 Google飛行場航空写真 Wunderground天気予報

過去48時間のMETAR

飛行場予報(TAF)
発表時間: 1/19 22:31 +11 (1/19 11:31 UTC)
予報対象時間: 19日23時 +11 ~ 20日23時 +11
風向・風速東北東 6m/s
視程10km以上
天気現象周辺でしゅう雨
全天の4割程度の雲 雲底高度 550m
全天の4割程度の雲 雲底高度 1520m
19日23時 +11 ~ 20日1時 +11 に一時的に
視程10km以上
天気現象弱いしゅう雨
全天の8割程度の雲 雲底高度 550m
PTPN 191131Z 1912/2012 07011KT P6SM VCSH SCT018 SCT050
TEMPO 1912/1914 6SM -SHRA BKN018